createdAt,value
2023-05-21T00:00:06.734Z,22.68
2023-05-21T00:01:06.731Z,22.68
2023-05-21T00:02:06.737Z,22.69
2023-05-21T00:03:06.837Z,22.68
2023-05-21T00:04:06.778Z,22.69
2023-05-21T00:05:06.826Z,22.68
2023-05-21T00:06:06.849Z,22.68
2023-05-21T00:07:06.867Z,22.67
2023-05-21T00:08:06.900Z,22.67
2023-05-21T00:09:06.887Z,22.67
2023-05-21T00:10:06.948Z,22.67
2023-05-21T00:11:06.946Z,22.67
2023-05-21T00:12:07.036Z,22.67
2023-05-21T00:13:07.051Z,22.67
2023-05-21T00:14:07.063Z,22.67
2023-05-21T00:15:07.086Z,22.67
2023-05-21T00:16:07.155Z,22.67
2023-05-21T00:17:07.112Z,22.66
2023-05-21T00:18:07.230Z,22.66
2023-05-21T00:19:07.174Z,22.67
2023-05-21T00:20:07.216Z,22.67
2023-05-21T00:21:07.222Z,22.66
2023-05-21T00:22:07.226Z,22.67
2023-05-21T00:23:07.256Z,22.67
2023-05-21T00:24:07.307Z,22.67
2023-05-21T00:25:07.342Z,22.66
2023-05-21T00:26:07.339Z,22.66
2023-05-21T00:27:07.405Z,22.65
2023-05-21T00:28:07.396Z,22.66
2023-05-21T00:29:07.457Z,22.66
2023-05-21T00:30:07.448Z,22.65
2023-05-21T00:31:07.464Z,22.66
2023-05-21T00:32:07.790Z,22.66
2023-05-21T00:33:07.576Z,22.66
2023-05-21T00:34:07.571Z,22.66
2023-05-21T00:35:07.608Z,22.65
2023-05-21T00:36:07.590Z,22.65
2023-05-21T00:37:07.615Z,22.65
2023-05-21T00:38:07.639Z,22.65
2023-05-21T00:39:07.683Z,22.64
2023-05-21T00:40:07.744Z,22.65
2023-05-21T00:41:07.722Z,22.64
2023-05-21T00:42:07.751Z,22.64
2023-05-21T00:43:07.778Z,22.64
2023-05-21T00:44:07.873Z,22.64
2023-05-21T00:45:07.843Z,22.64
2023-05-21T00:46:07.925Z,22.64
2023-05-21T00:47:07.908Z,22.64
2023-05-21T00:48:07.999Z,22.63
2023-05-21T00:49:07.904Z,22.63
2023-05-21T00:50:07.968Z,22.64
2023-05-21T00:51:08.004Z,22.63
2023-05-21T00:52:08.013Z,22.63
2023-05-21T00:53:08.048Z,22.63
2023-05-21T00:54:08.045Z,22.64
2023-05-21T00:55:08.171Z,22.64
2023-05-21T00:56:08.110Z,22.64
2023-05-21T00:57:08.144Z,22.63
2023-05-21T00:58:08.167Z,22.63
2023-05-21T00:59:08.189Z,22.63
2023-05-21T01:00:08.231Z,22.63
2023-05-21T01:01:08.258Z,22.63
2023-05-21T01:02:08.260Z,22.63
2023-05-21T01:03:08.371Z,22.63
2023-05-21T01:04:08.280Z,22.63
2023-05-21T01:05:08.375Z,22.62
2023-05-21T01:06:08.375Z,22.63
2023-05-21T01:07:08.383Z,22.62
2023-05-21T01:08:08.429Z,22.63
2023-05-21T01:09:08.458Z,22.63
2023-05-21T01:10:08.503Z,22.63
2023-05-21T01:11:08.473Z,22.62
2023-05-21T01:12:08.551Z,22.62
2023-05-21T01:13:08.586Z,22.63
2023-05-21T01:14:08.609Z,22.62
2023-05-21T01:15:08.661Z,22.62
2023-05-21T01:16:08.662Z,22.61
2023-05-21T01:17:08.682Z,22.61
2023-05-21T01:18:08.703Z,22.61
2023-05-21T01:19:08.851Z,22.61
2023-05-21T01:20:09.351Z,22.61
2023-05-21T01:21:08.784Z,22.60
2023-05-21T01:22:08.833Z,22.60
2023-05-21T01:23:08.830Z,22.60
2023-05-21T01:24:08.865Z,22.60
2023-05-21T01:25:08.868Z,22.60
2023-05-21T01:26:08.920Z,22.60
2023-05-21T01:27:08.928Z,22.60
2023-05-21T01:28:08.952Z,22.60
2023-05-21T01:29:08.977Z,22.60
2023-05-21T01:30:09.043Z,22.59
2023-05-21T01:31:09.050Z,22.60
2023-05-21T01:32:09.073Z,22.59
2023-05-21T01:33:09.204Z,22.58
2023-05-21T01:34:09.333Z,22.59
2023-05-21T01:35:09.166Z,22.59
2023-05-21T01:36:09.193Z,22.59
2023-05-21T01:37:09.230Z,22.60
2023-05-21T01:38:09.250Z,22.59
2023-05-21T01:39:09.263Z,22.60
2023-05-21T01:40:09.279Z,22.59
2023-05-21T01:41:09.328Z,22.59
2023-05-21T01:42:09.380Z,22.59
2023-05-21T01:43:09.413Z,22.58
2023-05-21T01:44:09.385Z,22.59
2023-05-21T01:45:09.430Z,22.58
2023-05-21T01:46:09.494Z,22.58
2023-05-21T01:47:09.438Z,22.58
2023-05-21T01:48:09.464Z,22.58
2023-05-21T01:49:09.486Z,22.59
2023-05-21T01:50:09.545Z,22.58
2023-05-21T01:51:09.518Z,22.58
2023-05-21T01:52:09.558Z,22.58
2023-05-21T01:53:09.593Z,22.57
2023-05-21T01:54:09.630Z,22.57
2023-05-21T01:55:09.666Z,22.57
2023-05-21T01:56:09.737Z,22.57
2023-05-21T01:57:09.737Z,22.56
2023-05-21T01:58:09.752Z,22.57
2023-05-21T01:59:09.760Z,22.57
2023-05-21T02:00:09.827Z,22.57
2023-05-21T02:01:09.857Z,22.57
2023-05-21T02:02:09.963Z,22.57
2023-05-21T02:03:09.990Z,22.56
2023-05-21T02:04:09.978Z,22.56
2023-05-21T02:05:09.939Z,22.57
2023-05-21T02:06:09.960Z,22.57
2023-05-21T02:07:10.034Z,22.57
2023-05-21T02:08:10.057Z,22.57
2023-05-21T02:09:10.073Z,22.57
2023-05-21T02:10:10.108Z,22.57
2023-05-21T02:11:10.128Z,22.57
2023-05-21T02:12:10.168Z,22.57
2023-05-21T02:13:11.749Z,22.57
2023-05-21T02:14:10.203Z,22.56
2023-05-21T02:15:10.255Z,22.56
2023-05-21T02:16:10.330Z,22.56
2023-05-21T02:17:10.288Z,22.55
2023-05-21T02:18:10.379Z,22.56
2023-05-21T02:19:10.354Z,22.56
2023-05-21T02:20:10.377Z,22.55
2023-05-21T02:21:10.410Z,22.55
2023-05-21T02:22:10.442Z,22.56
2023-05-21T02:23:10.456Z,22.56
2023-05-21T02:24:10.521Z,22.55
2023-05-21T02:25:10.542Z,22.55
2023-05-21T02:26:10.583Z,22.54
2023-05-21T02:27:10.640Z,22.55
2023-05-21T02:28:10.638Z,22.55
2023-05-21T02:29:10.669Z,22.55
2023-05-21T02:30:10.740Z,22.55
2023-05-21T02:31:10.755Z,22.54
2023-05-21T02:32:10.824Z,22.55
2023-05-21T02:33:10.919Z,22.55
2023-05-21T02:34:10.932Z,22.55
2023-05-21T02:35:10.900Z,22.55
2023-05-21T02:36:10.981Z,22.54
2023-05-21T02:37:10.962Z,22.55
2023-05-21T02:38:11.047Z,22.54
2023-05-21T02:39:11.082Z,22.55
2023-05-21T02:40:11.127Z,22.54
2023-05-21T02:41:11.148Z,22.54
2023-05-21T02:42:11.188Z,22.53
2023-05-21T02:43:11.216Z,22.54
2023-05-21T02:44:11.274Z,22.53
2023-05-21T02:45:11.359Z,22.53
2023-05-21T02:46:11.362Z,22.53
2023-05-21T02:47:11.333Z,22.53
2023-05-21T02:48:11.460Z,22.53
2023-05-21T02:49:11.457Z,22.53
2023-05-21T02:50:11.467Z,22.53
2023-05-21T02:51:11.529Z,22.52
2023-05-21T02:52:11.588Z,22.51
2023-05-21T02:53:11.618Z,22.53
2023-05-21T02:54:11.656Z,22.53
2023-05-21T02:55:11.698Z,22.53
2023-05-21T02:56:11.749Z,22.53
2023-05-21T02:57:11.776Z,22.53
2023-05-21T02:58:11.829Z,22.53
2023-05-21T02:59:11.845Z,22.52
2023-05-21T03:00:11.903Z,22.52
2023-05-21T03:01:11.987Z,22.52
2023-05-21T03:02:12.006Z,22.52
2023-05-21T03:03:12.105Z,22.52
2023-05-21T03:04:12.058Z,22.51
2023-05-21T03:05:12.136Z,22.52
2023-05-21T03:06:12.180Z,22.52
2023-05-21T03:07:12.231Z,22.51
2023-05-21T03:08:12.272Z,22.51
2023-05-21T03:09:12.306Z,22.52
2023-05-21T03:10:12.333Z,22.51
2023-05-21T03:11:12.391Z,22.51
2023-05-21T03:12:12.462Z,22.50
2023-05-21T03:13:12.507Z,22.51
2023-05-21T03:14:12.510Z,22.51
2023-05-21T03:15:12.553Z,22.51
2023-05-21T03:16:12.617Z,22.50
2023-05-21T03:17:12.660Z,22.50
2023-05-21T03:18:12.685Z,22.50
2023-05-21T03:19:12.740Z,22.50
2023-05-21T03:20:12.761Z,22.50
2023-05-21T03:21:12.787Z,22.50
2023-05-21T03:22:12.865Z,22.51
2023-05-21T03:23:15.546Z,22.49
2023-05-21T03:24:12.884Z,22.50
2023-05-21T03:25:12.910Z,22.50
2023-05-21T03:26:12.886Z,22.50
2023-05-21T03:27:12.852Z,22.49
2023-05-21T03:28:12.886Z,22.49
2023-05-21T03:29:12.844Z,22.49
2023-05-21T03:30:12.872Z,22.49
2023-05-21T03:31:12.823Z,22.50
2023-05-21T03:32:12.959Z,22.48
2023-05-21T03:33:12.821Z,22.49
2023-05-21T03:34:12.802Z,22.49
2023-05-21T03:35:12.831Z,22.49
2023-05-21T03:36:12.785Z,22.48
2023-05-21T03:37:12.802Z,22.49
2023-05-21T03:38:12.798Z,22.49
2023-05-21T03:39:12.803Z,22.49
2023-05-21T03:40:13.246Z,22.49
2023-05-21T03:41:12.754Z,22.49
2023-05-21T03:42:12.768Z,22.49
2023-05-21T03:43:12.777Z,22.49
2023-05-21T03:44:12.756Z,22.49
2023-05-21T03:45:12.751Z,22.49
2023-05-21T03:46:12.814Z,22.49
2023-05-21T03:47:12.708Z,22.48
2023-05-21T03:48:12.717Z,22.48
2023-05-21T03:49:12.717Z,22.48
2023-05-21T03:50:12.723Z,22.48
2023-05-21T03:51:12.685Z,22.48
2023-05-21T03:52:12.710Z,22.48
2023-05-21T03:53:12.672Z,22.48
2023-05-21T03:54:12.684Z,22.48
2023-05-21T03:55:12.691Z,22.47
2023-05-21T03:56:12.702Z,22.47
2023-05-21T03:57:12.698Z,22.47
2023-05-21T03:58:12.670Z,22.47
2023-05-21T03:59:12.642Z,22.47
2023-05-21T04:00:12.649Z,22.48
2023-05-21T04:01:12.670Z,22.49
2023-05-21T04:02:12.690Z,22.49
2023-05-21T04:03:12.786Z,22.48
2023-05-21T04:04:12.690Z,22.48
2023-05-21T04:05:12.748Z,22.49
2023-05-21T04:06:12.756Z,22.49
2023-05-21T04:07:12.765Z,22.49
2023-05-21T04:08:12.821Z,22.49
2023-05-21T04:09:12.875Z,22.48
2023-05-21T04:10:12.924Z,22.48
2023-05-21T04:11:12.922Z,22.49
2023-05-21T04:12:12.968Z,22.49
2023-05-21T04:13:13.007Z,22.49
2023-05-21T04:14:13.057Z,22.49
2023-05-21T04:15:13.122Z,22.49
2023-05-21T04:16:13.153Z,22.48
2023-05-21T04:17:13.191Z,22.48
2023-05-21T04:18:13.216Z,22.49
2023-05-21T04:19:13.278Z,22.49
2023-05-21T04:20:13.301Z,22.49
2023-05-21T04:21:13.354Z,22.49
2023-05-21T04:22:13.385Z,22.49
2023-05-21T04:23:13.444Z,22.50
2023-05-21T04:24:13.473Z,22.49
2023-05-21T04:25:13.567Z,22.50
2023-05-21T04:26:13.561Z,22.49
2023-05-21T04:27:13.599Z,22.50
2023-05-21T04:28:13.635Z,22.50
2023-05-21T04:29:13.670Z,22.50
2023-05-21T04:30:13.770Z,22.50
2023-05-21T04:31:13.888Z,22.50
2023-05-21T04:32:13.836Z,22.50
2023-05-21T04:33:13.861Z,22.51
2023-05-21T04:34:13.908Z,22.51
2023-05-21T04:35:13.995Z,22.51
2023-05-21T04:36:14.004Z,22.51
2023-05-21T04:37:14.040Z,22.51
2023-05-21T04:38:14.141Z,22.52
2023-05-21T04:39:14.127Z,22.51
2023-05-21T04:40:14.178Z,22.51
2023-05-21T04:41:14.210Z,22.51
2023-05-21T04:42:14.225Z,22.51
2023-05-21T04:43:14.278Z,22.51
2023-05-21T04:44:14.344Z,22.52
2023-05-21T04:45:14.364Z,22.52
2023-05-21T04:46:14.409Z,22.52
2023-05-21T04:47:14.432Z,22.52
2023-05-21T04:48:14.461Z,22.53
2023-05-21T04:49:14.540Z,22.52
2023-05-21T04:50:14.759Z,22.53
2023-05-21T04:51:14.622Z,22.52
2023-05-21T04:52:14.645Z,22.53
2023-05-21T04:53:14.727Z,22.54
2023-05-21T04:54:14.720Z,22.53
2023-05-21T04:55:14.785Z,22.54
2023-05-21T04:56:14.820Z,22.55
2023-05-21T04:57:14.838Z,22.55
2023-05-21T04:58:14.908Z,22.54
2023-05-21T04:59:14.948Z,22.54
2023-05-21T05:00:14.986Z,22.55
2023-05-21T05:01:15.060Z,22.56
2023-05-21T05:02:15.086Z,22.55
2023-05-21T05:03:15.189Z,22.55
2023-05-21T05:04:15.157Z,22.56
2023-05-21T05:05:15.223Z,22.57
2023-05-21T05:06:15.267Z,22.57
2023-05-21T05:07:15.274Z,22.57
2023-05-21T05:08:16.142Z,22.57
2023-05-21T05:09:15.325Z,22.58
2023-05-21T05:10:15.406Z,22.58
2023-05-21T05:11:15.427Z,22.57
2023-05-21T05:12:15.514Z,22.57
2023-05-21T05:13:15.548Z,22.57
2023-05-21T05:14:15.536Z,22.57
2023-05-21T05:15:15.591Z,22.58
2023-05-21T05:16:15.683Z,22.58
2023-05-21T05:17:15.727Z,22.59
2023-05-21T05:18:15.710Z,22.59
2023-05-21T05:19:15.879Z,22.59
2023-05-21T05:20:15.795Z,22.59
2023-05-21T05:21:16.045Z,22.59
2023-05-21T05:22:16.841Z,22.58
2023-05-21T05:23:15.800Z,22.59
2023-05-21T05:24:15.792Z,22.59
2023-05-21T05:25:15.799Z,22.60
2023-05-21T05:26:15.781Z,22.59
2023-05-21T05:27:15.782Z,22.60
2023-05-21T05:28:15.767Z,22.60
2023-05-21T05:29:15.785Z,22.60
2023-05-21T05:30:15.730Z,22.60
2023-05-21T05:31:15.834Z,22.60
2023-05-21T05:32:15.767Z,22.61
2023-05-21T05:33:15.797Z,22.60
2023-05-21T05:34:15.860Z,22.61
2023-05-21T05:35:15.885Z,22.60
2023-05-21T05:36:15.957Z,22.61
2023-05-21T05:37:15.936Z,22.61
2023-05-21T05:38:15.979Z,22.61
2023-05-21T05:39:16.022Z,22.61
2023-05-21T05:40:16.051Z,22.61
2023-05-21T05:41:16.091Z,22.61
2023-05-21T05:42:16.130Z,22.61
2023-05-21T05:43:16.172Z,22.62
2023-05-21T05:44:16.203Z,22.61
2023-05-21T05:45:16.261Z,22.62
2023-05-21T05:46:16.333Z,22.61
2023-05-21T05:47:16.312Z,22.61
2023-05-21T05:48:16.374Z,22.62
2023-05-21T05:49:16.420Z,22.62
2023-05-21T05:50:16.430Z,22.62
2023-05-21T05:51:16.504Z,22.62
2023-05-21T05:52:16.513Z,22.62
2023-05-21T05:53:16.553Z,22.62
2023-05-21T05:54:16.579Z,22.63
2023-05-21T05:55:16.594Z,22.63
2023-05-21T05:56:16.637Z,22.63
2023-05-21T05:57:16.632Z,22.63
2023-05-21T05:58:16.684Z,22.62
2023-05-21T05:59:16.725Z,22.63
2023-05-21T06:00:16.728Z,22.64
2023-05-21T06:01:16.777Z,22.63
2023-05-21T06:02:16.838Z,22.64
2023-05-21T06:03:16.878Z,22.64
2023-05-21T06:04:16.845Z,22.65
2023-05-21T06:05:17.131Z,22.65
2023-05-21T06:06:17.020Z,22.66
2023-05-21T06:07:16.980Z,22.66
2023-05-21T06:08:16.995Z,22.66
2023-05-21T06:09:17.063Z,22.67
2023-05-21T06:10:17.072Z,22.67
2023-05-21T06:11:17.142Z,22.67
2023-05-21T06:12:17.126Z,22.67
2023-05-21T06:13:17.169Z,22.67
2023-05-21T06:14:17.178Z,22.69
2023-05-21T06:15:17.209Z,22.69
2023-05-21T06:16:17.266Z,22.70
2023-05-21T06:17:17.295Z,22.70
2023-05-21T06:18:17.304Z,22.70
2023-05-21T06:19:17.394Z,22.70
2023-05-21T06:20:17.392Z,22.70
2023-05-21T06:21:17.385Z,22.71
2023-05-21T06:22:17.637Z,22.70
2023-05-21T06:23:17.483Z,22.70
2023-05-21T06:24:17.485Z,22.71
2023-05-21T06:25:17.530Z,22.71
2023-05-21T06:26:17.564Z,22.71
2023-05-21T06:27:17.567Z,22.72
2023-05-21T06:28:17.645Z,22.71
2023-05-21T06:29:17.640Z,22.71
2023-05-21T06:30:17.674Z,22.72
2023-05-21T06:31:17.688Z,22.72
2023-05-21T06:32:17.764Z,22.72
2023-05-21T06:33:17.838Z,22.72
2023-05-21T06:34:17.755Z,22.73
2023-05-21T06:35:17.802Z,22.73
2023-05-21T06:36:17.789Z,22.73
2023-05-21T06:37:17.802Z,22.72
2023-05-21T06:38:17.847Z,22.73
2023-05-21T06:39:17.856Z,22.72
2023-05-21T06:40:17.885Z,22.72
2023-05-21T06:41:17.900Z,22.72
2023-05-21T06:42:18.050Z,22.73
2023-05-21T06:43:18.066Z,22.73
2023-05-21T06:44:18.013Z,22.72
2023-05-21T06:45:18.098Z,22.73
2023-05-21T06:46:18.101Z,22.73
2023-05-21T06:47:18.098Z,22.73
2023-05-21T06:48:18.113Z,22.73
2023-05-21T06:49:18.164Z,22.73
2023-05-21T06:50:18.140Z,22.72
2023-05-21T06:51:18.158Z,22.73
2023-05-21T06:52:18.174Z,22.74
2023-05-21T06:53:18.229Z,22.74
2023-05-21T06:54:18.273Z,22.74
2023-05-21T06:55:18.275Z,22.74
2023-05-21T06:56:18.292Z,22.74
2023-05-21T06:57:18.351Z,22.74
2023-05-21T06:58:18.332Z,22.74
2023-05-21T06:59:18.343Z,22.75
2023-05-21T07:00:18.374Z,22.74
2023-05-21T07:01:18.409Z,22.74
2023-05-21T07:02:18.413Z,22.75
2023-05-21T07:03:18.463Z,22.75
2023-05-21T07:04:18.413Z,22.75
2023-05-21T07:05:18.461Z,22.75
2023-05-21T07:06:18.477Z,22.76
2023-05-21T07:07:18.490Z,22.75
2023-05-21T07:08:18.484Z,22.76
2023-05-21T07:09:18.499Z,22.76
2023-05-21T07:10:18.567Z,22.76
2023-05-21T07:11:18.574Z,22.77
2023-05-21T07:12:18.615Z,22.76
2023-05-21T07:13:18.649Z,22.77
2023-05-21T07:14:18.642Z,22.77
2023-05-21T07:15:18.646Z,22.78
2023-05-21T07:16:18.723Z,22.78
2023-05-21T07:17:18.700Z,22.78
2023-05-21T07:18:18.706Z,22.79
2023-05-21T07:19:18.755Z,22.79
2023-05-21T07:20:18.724Z,22.79
2023-05-21T07:21:18.760Z,22.80
2023-05-21T07:22:18.752Z,22.81
2023-05-21T07:23:18.775Z,22.81
2023-05-21T07:24:18.770Z,22.82
2023-05-21T07:25:18.811Z,22.81
2023-05-21T07:26:18.818Z,22.83
2023-05-21T07:27:25.904Z,22.84
2023-05-21T07:28:19.818Z,22.84
2023-05-21T07:29:18.825Z,22.85
2023-05-21T07:30:18.795Z,22.85
2023-05-21T07:31:18.932Z,22.86
2023-05-21T07:32:18.780Z,22.86
2023-05-21T07:33:18.791Z,22.87
2023-05-21T07:34:18.790Z,22.87
2023-05-21T07:35:18.765Z,22.87
2023-05-21T07:36:18.776Z,22.87
2023-05-21T07:37:18.921Z,22.87
2023-05-21T07:38:18.768Z,22.88
2023-05-21T07:39:18.761Z,22.87
2023-05-21T07:40:18.762Z,22.88
2023-05-21T07:41:19.014Z,22.89
2023-05-21T07:42:18.731Z,22.89
2023-05-21T07:43:18.716Z,22.89
2023-05-21T07:44:18.736Z,22.90
2023-05-21T07:45:18.698Z,22.91
2023-05-21T07:46:18.874Z,22.91
2023-05-21T07:47:18.755Z,22.91
2023-05-21T07:48:18.692Z,22.91
2023-05-21T07:49:18.706Z,22.91
2023-05-21T07:50:18.725Z,22.92
2023-05-21T07:51:18.691Z,22.91
2023-05-21T07:52:18.813Z,22.92
2023-05-21T07:53:18.752Z,22.92
2023-05-21T07:54:18.711Z,22.93
2023-05-21T07:55:18.678Z,22.93
2023-05-21T07:56:18.758Z,22.94
2023-05-21T07:57:18.648Z,22.93
2023-05-21T07:58:18.664Z,22.94
2023-05-21T07:59:18.604Z,22.94
2023-05-21T08:00:18.609Z,22.95
2023-05-21T08:01:18.649Z,22.95
2023-05-21T08:02:18.712Z,22.95
2023-05-21T08:03:18.775Z,22.95
2023-05-21T08:04:18.728Z,22.95
2023-05-21T08:05:18.648Z,22.96
2023-05-21T08:06:18.586Z,22.95
2023-05-21T08:07:18.595Z,22.96
2023-05-21T08:08:18.572Z,22.97
2023-05-21T08:09:18.622Z,22.97
2023-05-21T08:10:19.481Z,22.97
2023-05-21T08:11:18.625Z,22.98
2023-05-21T08:12:18.597Z,22.98
2023-05-21T08:13:18.595Z,22.98
2023-05-21T08:14:18.629Z,22.98
2023-05-21T08:15:18.644Z,22.99
2023-05-21T08:16:18.677Z,22.98
2023-05-21T08:17:18.624Z,22.99
2023-05-21T08:18:18.636Z,23.00
2023-05-21T08:19:18.683Z,23.00
2023-05-21T08:20:18.636Z,23.00
2023-05-21T08:21:18.666Z,23.01
2023-05-21T08:22:18.649Z,23.02
2023-05-21T08:23:18.664Z,23.02
2023-05-21T08:24:18.668Z,23.03
2023-05-21T08:25:18.665Z,23.03
2023-05-21T08:26:18.674Z,23.03
2023-05-21T08:27:18.644Z,23.03
2023-05-21T08:28:18.667Z,23.04
2023-05-21T08:29:18.634Z,23.04
2023-05-21T08:30:18.626Z,23.05
2023-05-21T08:31:18.675Z,23.05
2023-05-21T08:32:18.640Z,23.06
2023-05-21T08:33:20.994Z,23.06
2023-05-21T08:34:18.684Z,23.06
2023-05-21T08:35:18.622Z,23.07
2023-05-21T08:36:18.617Z,23.07
2023-05-21T08:37:18.602Z,23.07
2023-05-21T08:38:18.607Z,23.07
2023-05-21T08:39:18.627Z,23.07
2023-05-21T08:40:18.638Z,23.08
2023-05-21T08:41:18.612Z,23.08
2023-05-21T08:42:32.811Z,23.09
2023-05-21T08:43:19.562Z,23.08
2023-05-21T08:44:18.631Z,23.08
2023-05-21T08:45:18.599Z,23.09
2023-05-21T08:46:18.639Z,23.09
2023-05-21T08:47:18.610Z,23.09
2023-05-21T08:48:18.573Z,23.10
2023-05-21T08:49:18.519Z,23.09
2023-05-21T08:50:18.516Z,23.09
2023-05-21T08:51:18.539Z,23.10
2023-05-21T08:52:18.543Z,23.09
2023-05-21T08:53:27.374Z,23.10
2023-05-21T08:54:19.506Z,23.09
2023-05-21T08:55:18.548Z,23.10
2023-05-21T08:56:18.503Z,23.10
2023-05-21T08:57:18.484Z,23.11
2023-05-21T08:58:18.516Z,23.11
2023-05-21T08:59:18.494Z,23.11
2023-05-21T09:00:18.489Z,23.11
2023-05-21T09:01:18.520Z,23.12
2023-05-21T09:02:18.488Z,23.12
2023-05-21T09:03:18.616Z,23.12
2023-05-21T09:04:21.150Z,23.12
2023-05-21T09:05:18.464Z,23.13
2023-05-21T09:06:18.461Z,23.12
2023-05-21T09:07:18.441Z,23.13
2023-05-21T09:08:18.401Z,23.13
2023-05-21T09:09:18.412Z,23.14
2023-05-21T09:10:18.415Z,23.13
2023-05-21T09:11:18.392Z,23.14
2023-05-21T09:12:18.401Z,23.14
2023-05-21T09:13:18.391Z,23.14
2023-05-21T09:14:18.390Z,23.14
2023-05-21T09:15:18.367Z,23.14
2023-05-21T09:16:18.407Z,23.14
2023-05-21T09:17:18.374Z,23.15
2023-05-21T09:18:18.348Z,23.15
2023-05-21T09:19:18.390Z,23.16
2023-05-21T09:20:18.348Z,23.15
2023-05-21T09:21:18.319Z,23.16
2023-05-21T09:22:18.342Z,23.17
2023-05-21T09:23:18.336Z,23.16
2023-05-21T09:24:18.311Z,23.17
2023-05-21T09:25:18.387Z,23.18
2023-05-21T09:26:18.335Z,23.17
2023-05-21T09:27:18.272Z,23.19
2023-05-21T09:28:18.310Z,23.19
2023-05-21T09:29:18.277Z,23.20
2023-05-21T09:30:18.306Z,23.20
2023-05-21T09:31:18.460Z,23.19
2023-05-21T09:32:18.291Z,23.20
2023-05-21T09:33:18.260Z,23.21
2023-05-21T09:34:18.244Z,23.21
2023-05-21T09:35:18.334Z,23.21
2023-05-21T09:36:18.227Z,23.22
2023-05-21T09:37:27.027Z,23.22
2023-05-21T09:38:19.240Z,23.22
2023-05-21T09:39:18.240Z,23.23
2023-05-21T09:40:18.219Z,23.23
2023-05-21T09:41:21.140Z,23.23
2023-05-21T09:42:18.303Z,23.23
2023-05-21T09:43:18.214Z,23.24
2023-05-21T09:44:18.208Z,23.25
2023-05-21T09:45:18.173Z,23.24
2023-05-21T09:46:18.219Z,23.26
2023-05-21T09:47:18.163Z,23.27
2023-05-21T09:48:18.172Z,23.27
2023-05-21T09:49:18.176Z,23.27
2023-05-21T09:50:18.200Z,23.28
2023-05-21T09:51:18.217Z,23.28
2023-05-21T09:52:18.159Z,23.28
2023-05-21T09:53:18.162Z,23.28
2023-05-21T09:54:18.161Z,23.29
2023-05-21T09:55:18.168Z,23.30
2023-05-21T09:56:18.158Z,23.29
2023-05-21T09:57:18.117Z,23.29
2023-05-21T09:58:18.134Z,23.29
2023-05-21T09:59:18.100Z,23.30
2023-05-21T10:00:18.098Z,23.30
2023-05-21T10:01:18.154Z,23.30
2023-05-21T10:02:18.256Z,23.30
2023-05-21T10:03:18.102Z,23.30
2023-05-21T10:04:18.100Z,23.31
2023-05-21T10:05:18.089Z,23.30
2023-05-21T10:06:18.092Z,23.30
2023-05-21T10:07:18.077Z,23.30
2023-05-21T10:08:18.063Z,23.30
2023-05-21T10:09:18.102Z,23.30
2023-05-21T10:10:18.185Z,23.30
2023-05-21T10:11:18.212Z,23.30
2023-05-21T10:12:18.370Z,23.31
2023-05-21T10:13:18.339Z,23.31
2023-05-21T10:14:18.429Z,23.31
2023-05-21T10:15:18.471Z,23.30
2023-05-21T10:16:18.609Z,23.31
2023-05-21T10:17:18.587Z,23.32
2023-05-21T10:18:18.651Z,23.31
2023-05-21T10:19:18.763Z,23.32
2023-05-21T10:20:18.749Z,23.32
2023-05-21T10:21:18.806Z,23.32
2023-05-21T10:22:18.873Z,23.33
2023-05-21T10:23:18.921Z,23.34
2023-05-21T10:24:18.966Z,23.34
2023-05-21T10:25:19.050Z,23.35
2023-05-21T10:26:19.086Z,23.35
2023-05-21T10:27:19.159Z,23.35
2023-05-21T10:28:19.201Z,23.35
2023-05-21T10:29:19.742Z,23.36
2023-05-21T10:30:19.329Z,23.37
2023-05-21T10:31:19.381Z,23.37
2023-05-21T10:32:19.485Z,23.37
2023-05-21T10:33:19.518Z,23.37
2023-05-21T10:34:19.533Z,23.38
2023-05-21T10:35:19.588Z,23.39
2023-05-21T10:36:19.620Z,23.39
2023-05-21T10:37:19.655Z,23.39
2023-05-21T10:38:19.764Z,23.40
2023-05-21T10:39:19.788Z,23.40
2023-05-21T10:40:19.834Z,23.39
2023-05-21T10:41:19.900Z,23.40
2023-05-21T10:42:19.975Z,23.41
2023-05-21T10:43:20.061Z,23.41
2023-05-21T10:44:20.163Z,23.42
2023-05-21T10:45:20.196Z,23.42
2023-05-21T10:46:20.395Z,23.42
2023-05-21T10:47:20.326Z,23.42
2023-05-21T10:48:20.428Z,23.42
2023-05-21T10:49:20.432Z,23.42
2023-05-21T10:50:20.495Z,23.43
2023-05-21T10:51:20.575Z,23.42
2023-05-21T10:52:20.642Z,23.42
2023-05-21T10:53:20.673Z,23.42
2023-05-21T10:54:20.745Z,23.42
2023-05-21T10:55:20.798Z,23.42
2023-05-21T10:56:20.877Z,23.42
2023-05-21T10:57:20.954Z,23.42
2023-05-21T10:58:20.962Z,23.42
2023-05-21T10:59:21.044Z,23.43
2023-05-21T11:00:21.133Z,23.43
2023-05-21T11:01:21.207Z,23.42
2023-05-21T11:02:21.271Z,23.43
2023-05-21T11:03:21.439Z,23.43
2023-05-21T11:04:21.339Z,23.43
2023-05-21T11:05:21.382Z,23.44
2023-05-21T11:06:21.459Z,23.44
2023-05-21T11:07:21.521Z,23.44
2023-05-21T11:08:21.554Z,23.44
2023-05-21T11:09:21.653Z,23.45
2023-05-21T11:10:21.689Z,23.45
2023-05-21T11:11:21.772Z,23.46
2023-05-21T11:12:21.808Z,23.46
2023-05-21T11:13:21.924Z,23.47
2023-05-21T11:14:21.922Z,23.47
2023-05-21T11:15:21.991Z,23.48
2023-05-21T11:16:22.127Z,23.48
2023-05-21T11:17:22.245Z,23.49
2023-05-21T11:18:22.150Z,23.49
2023-05-21T11:19:22.217Z,23.50
2023-05-21T11:20:22.271Z,23.49
2023-05-21T11:21:22.311Z,23.51
2023-05-21T11:22:22.349Z,23.51
2023-05-21T11:23:22.417Z,23.50
2023-05-21T11:24:22.537Z,23.52
2023-05-21T11:25:22.501Z,23.52
2023-05-21T11:26:22.568Z,23.52
2023-05-21T11:27:22.570Z,23.53
2023-05-21T11:28:22.627Z,23.54
2023-05-21T11:29:22.682Z,23.54
2023-05-21T11:30:22.717Z,23.55
2023-05-21T11:31:22.814Z,23.54
2023-05-21T11:32:22.892Z,23.55
2023-05-21T11:33:22.855Z,23.55
2023-05-21T11:34:22.899Z,23.55
2023-05-21T11:35:22.952Z,23.55
2023-05-21T11:36:23.001Z,23.56
2023-05-21T11:37:23.074Z,23.56
2023-05-21T11:38:23.120Z,23.56
2023-05-21T11:39:23.146Z,23.57
2023-05-21T11:40:23.170Z,23.57
2023-05-21T11:41:23.229Z,23.57
2023-05-21T11:42:23.269Z,23.57
2023-05-21T11:43:23.303Z,23.57
2023-05-21T11:44:23.350Z,23.57
2023-05-21T11:45:23.398Z,23.56
2023-05-21T11:46:23.478Z,23.57
2023-05-21T11:47:23.484Z,23.57
2023-05-21T11:48:26.525Z,23.58
2023-05-21T11:49:23.526Z,23.58
2023-05-21T11:50:23.492Z,23.59
2023-05-21T11:51:23.501Z,23.59
2023-05-21T11:52:23.523Z,23.60
2023-05-21T11:53:23.491Z,23.61
2023-05-21T11:54:23.464Z,23.61
2023-05-21T11:55:23.485Z,23.62
2023-05-21T11:56:23.473Z,23.63
2023-05-21T11:57:23.467Z,23.62
2023-05-21T11:58:23.443Z,23.64
2023-05-21T11:59:23.481Z,23.64
2023-05-21T12:00:23.437Z,23.64
2023-05-21T12:01:23.452Z,23.63
2023-05-21T12:02:23.499Z,23.64
2023-05-21T12:03:23.555Z,23.62
2023-05-21T12:04:23.416Z,23.63
2023-05-21T12:05:23.411Z,23.63
2023-05-21T12:06:23.444Z,23.64
2023-05-21T12:07:23.398Z,23.64
2023-05-21T12:08:23.478Z,23.64
2023-05-21T12:09:23.383Z,23.65
2023-05-21T12:10:23.387Z,23.65
2023-05-21T12:11:23.365Z,23.65
2023-05-21T12:12:23.370Z,23.65
2023-05-21T12:13:23.379Z,23.66
2023-05-21T12:14:23.403Z,23.67
2023-05-21T12:15:23.365Z,23.67
2023-05-21T12:16:23.356Z,23.67
2023-05-21T12:17:23.380Z,23.67
2023-05-21T12:18:23.376Z,23.68
2023-05-21T12:19:23.387Z,23.68
2023-05-21T12:20:23.343Z,23.69
2023-05-21T12:21:23.366Z,23.70
2023-05-21T12:22:23.306Z,23.70
2023-05-21T12:23:23.328Z,23.72
2023-05-21T12:24:23.338Z,23.73
2023-05-21T12:25:23.285Z,23.74
2023-05-21T12:26:23.290Z,23.76
2023-05-21T12:27:23.292Z,23.76
2023-05-21T12:28:23.343Z,23.77
2023-05-21T12:29:23.359Z,23.79
2023-05-21T12:30:23.386Z,23.79
2023-05-21T12:31:23.444Z,23.79
2023-05-21T12:32:23.460Z,23.80
2023-05-21T12:33:25.260Z,23.80
2023-05-21T12:34:23.456Z,23.82
2023-05-21T12:35:24.039Z,23.82
2023-05-21T12:36:23.511Z,23.84
2023-05-21T12:37:23.539Z,23.84
2023-05-21T12:38:23.506Z,23.85
2023-05-21T12:39:23.525Z,23.87
2023-05-21T12:40:23.562Z,23.88
2023-05-21T12:41:23.605Z,23.88
2023-05-21T12:42:23.578Z,23.90
2023-05-21T12:43:23.584Z,23.90
2023-05-21T12:44:23.663Z,23.92
2023-05-21T12:45:23.605Z,23.92
2023-05-21T12:46:23.764Z,23.94
2023-05-21T12:47:23.678Z,23.94
2023-05-21T12:48:23.614Z,23.96
2023-05-21T12:49:23.638Z,23.98
2023-05-21T12:50:23.646Z,23.98
2023-05-21T12:51:23.642Z,24.00
2023-05-21T12:52:23.638Z,24.00